createdAt,value
2022-12-08T00:00:02.337Z,3.63
2022-12-08T00:15:02.421Z,3.55
2022-12-08T00:30:02.521Z,3.57
2022-12-08T00:45:02.203Z,3.51
2022-12-08T01:00:02.320Z,3.46
2022-12-08T01:15:02.975Z,3.39
2022-12-08T01:30:02.323Z,3.28
2022-12-08T01:45:02.188Z,3.13
2022-12-08T02:00:02.403Z,3.01
2022-12-08T02:15:05.318Z,2.95
2022-12-08T02:30:02.830Z,2.93
2022-12-08T02:45:01.839Z,2.95
2022-12-08T03:00:02.997Z,2.99
2022-12-08T03:15:01.858Z,3.03
2022-12-08T03:30:03.157Z,3.09
2022-12-08T03:45:02.087Z,3.15
2022-12-08T04:00:02.037Z,3.17
2022-12-08T04:15:02.015Z,3.28
2022-12-08T04:30:02.225Z,3.31
2022-12-08T04:45:02.049Z,3.34
2022-12-08T05:00:01.918Z,3.4
2022-12-08T05:15:01.866Z,3.48
2022-12-08T05:30:02.291Z,3.54
2022-12-08T05:45:02.347Z,3.61
2022-12-08T06:00:02.418Z,3.63
2022-12-08T06:15:02.478Z,3.69
2022-12-08T06:30:02.649Z,3.74
2022-12-08T06:45:01.680Z,3.72
2022-12-08T07:00:02.700Z,3.82
2022-12-08T07:15:01.844Z,3.81
2022-12-08T07:30:02.675Z,3.83
2022-12-08T07:45:01.793Z,3.88
2022-12-08T08:00:02.779Z,3.9
2022-12-08T08:15:01.791Z,3.99
2022-12-08T08:30:03.051Z,3.98
2022-12-08T08:45:02.062Z,3.94
2022-12-08T09:00:02.113Z,4.06
2022-12-08T09:15:02.033Z,4.07
2022-12-08T09:30:01.879Z,4.11
2022-12-08T09:45:01.648Z,4.15
2022-12-08T10:00:02.672Z,4.17
2022-12-08T10:15:02.604Z,4.18
2022-12-08T10:30:02.520Z,4.28
2022-12-08T10:45:02.442Z,4.49
2022-12-08T11:00:02.293Z,4.44
2022-12-08T11:15:02.166Z,4.39
2022-12-08T11:30:02.151Z,4.41
2022-12-08T11:45:02.215Z,4.46
2022-12-08T12:00:02.440Z,4.53
2022-12-08T12:15:02.311Z,4.55
2022-12-08T12:30:01.951Z,4.57
2022-12-08T12:45:01.651Z,4.59
2022-12-08T13:00:02.298Z,4.64
2022-12-08T13:15:02.010Z,4.69
2022-12-08T13:30:02.039Z,4.72
2022-12-08T14:00:01.632Z,4.64
2022-12-08T14:15:14.615Z,4.59
2022-12-08T14:30:02.392Z,4.53
2022-12-08T14:45:02.004Z,4.47
2022-12-08T15:00:01.801Z,4.32
2022-12-08T15:15:01.642Z,4.24
2022-12-08T15:30:02.522Z,4.24
2022-12-08T15:45:02.338Z,4.22
2022-12-08T16:00:02.048Z,4.2
2022-12-08T16:15:48.516Z,4.11
2022-12-08T16:30:02.095Z,4.05
2022-12-08T16:45:01.712Z,4.03
2022-12-08T17:00:02.549Z,3.99
2022-12-08T17:15:02.553Z,3.91
2022-12-08T17:30:02.580Z,3.81
2022-12-08T17:45:02.469Z,3.82
2022-12-08T18:00:02.244Z,3.82
2022-12-08T18:15:02.002Z,3.75
2022-12-08T18:30:01.950Z,3.75
2022-12-08T18:45:01.812Z,3.67
2022-12-08T19:00:02.674Z,3.6
2022-12-08T19:15:02.577Z,3.5
2022-12-08T19:30:02.318Z,3.46
2022-12-08T19:45:01.922Z,3.21
2022-12-08T20:00:02.579Z,3.1
2022-12-08T20:15:02.278Z,2.96
2022-12-08T20:30:01.967Z,2.8
2022-12-08T20:45:01.646Z,2.64
2022-12-08T21:00:02.477Z,2.47
2022-12-08T21:15:02.363Z,2.46
2022-12-08T21:30:02.117Z,2.48
2022-12-08T21:45:02.016Z,2.48
2022-12-08T22:00:01.735Z,2.52
2022-12-08T22:15:02.486Z,2.51
2022-12-08T22:30:02.275Z,2.39
2022-12-08T22:45:02.359Z,2.17
2022-12-08T23:00:02.223Z,2.1
2022-12-08T23:15:01.907Z,1.97
2022-12-08T23:30:01.744Z,1.92
2022-12-08T23:45:02.426Z,1.92
